Flight Track Log - Related Links

Times and Time Zones

All times are in EDT time to prevent confusion due to time zone crossing. See the N79SE flight status page for this flight to view local times or setup timezone preferences in your user account.

Time Position Orientation Groundspeed Altitude Reporting Facility
EDT Latitude Longitude Course Direction KTS MPH feet Rate Location/Type
Tue 03:20:15 PM 39.7108 -84.8736 185° South 201 231 2,800  Level Indianapolis Center
Tue 03:21:27 PM 39.6386 -84.8822 185° South 242 278 5,000 2,577 Climbing Indianapolis Center
Tue 03:22:58 PM 39.5419 -84.9006 188° South 252 290 9,800 1,948 Climbing Indianapolis Center
Tue 03:24:01 PM 39.4469 -84.9228 190° South 344 396 10,000 672 Climbing Indianapolis Center
Tue 03:25:03 PM 39.3325 -84.9489 190° South 347 399 11,200 1,597 Climbing Indianapolis Center
Tue 03:26:05 PM 39.2383 -84.9725 191° South 345 397 13,300 2,419 Climbing Indianapolis Center
Tue 03:27:07 PM 39.1372 -84.9933 189° South 363 418 16,200 2,661 Climbing Indianapolis Center
Tue 03:28:09 PM 39.0397 -85.0164 190° South 358 412 18,800 2,613 Climbing Indianapolis Center
Tue 03:29:11 PM 38.9417 -85.0378 190° South 356 410 21,600 2,371 Climbing Indianapolis Center
Tue 03:30:13 PM 38.8422 -85.0597 190° South 360 414 23,700 2,226 Climbing Indianapolis Center
Tue 03:31:15 PM 38.7181 -85.0881 190° South 373 429 26,200 2,177 Climbing Indianapolis Center
Tue 03:32:17 PM 38.6164 -85.1092 189° South 379 436 28,200 1,887 Climbing Indianapolis Center
Tue 03:33:19 PM 38.5119 -85.1314 189° South 381 438 30,100 1,887 Climbing Indianapolis Center
Tue 03:34:21 PM 38.3822 -85.1631 191° South 398 458 32,100 1,403 Climbing Indianapolis Center
Tue 03:35:23 PM 38.2697 -85.1869 189° South 408 470 33,000 435 Climbing Indianapolis Center
Tue 03:36:25 PM 38.1606 -85.2108 190° South 433 498 33,000  Level Indianapolis Center
Tue 03:37:27 PM 38.0331 -85.2375 189° South 455 524 33,000 726 Level Indianapolis Center
Tue 03:38:29 PM 37.8831 -85.2694 190° South 452 520 34,500 1,452 Climbing Indianapolis Center
Tue 03:39:31 PM 37.7614 -85.2956 190° South 423 487 36,000 726 Climbing Indianapolis Center
Tue 03:40:33 PM 37.6428 -85.3203 189° South 431 496 36,000 48 Level Indianapolis Center
Tue 03:41:36 PM 37.5158 -85.3478 190° South 453 521 36,100 912 Climbing Indianapolis Center
Tue 03:42:38 PM 37.3944 -85.3742 190° South 449 517 37,900 1,645 Climbing Indianapolis Center
Tue 03:43:40 PM 37.2775 -85.3994 190° South 431 496 39,500 1,355 Climbing Indianapolis Center
Tue 03:44:42 PM 37.1464 -85.4283 190° South 413 475 40,700 726 Climbing Indianapolis Center
Tue 03:45:44 PM 37.0267 -85.4536 190° South 417 480 41,000 387 Climbing Indianapolis Center
Tue 03:46:46 PM 36.9083 -85.4783 189° South 428 493 41,500 677 Climbing Indianapolis Center
Tue 03:47:48 PM 36.7917 -85.5022 189° South 425 489 42,400 677 Climbing Indianapolis Center
Tue 03:48:50 PM 36.6781 -85.5264 190° South 417 480 42,900 290 Climbing Indianapolis Center
Tue 03:49:52 PM 36.5639 -85.5503 190° South 417 480 43,000 48 Climbing Indianapolis Center
Tue 03:50:54 PM 36.4489 -85.5747 190° South 419 482 43,000  Level Indianapolis Center
Tue 03:51:56 PM 36.3083 -85.6036 189° South 427 491 43,000  Level Indianapolis Center
Tue 03:52:58 PM 36.1931 -85.6269 189° South 424 488 43,000  Level Indianapolis Center
Tue 03:54:00 PM 36.0750 -85.6517 190° South 429 494 43,000  Level Indianapolis Center
Tue 03:55:02 PM 35.9589 -85.6753 189° South 427 491 43,000  Level Indianapolis Center
Tue 03:56:06 PM 35.8197 -85.7058 190° South 431 496 43,000  Level Atlanta Center
Tue 03:57:06 PM 35.7025 -85.7317 190° South 431 496 43,000  Level Atlanta Center
Tue 03:58:06 PM 35.5811 -85.7522 188° South 431 496 43,000  Level Atlanta Center
Tue 03:59:06 PM 35.4639 -85.7778 190° South 431 496 43,000  Level Atlanta Center
Tue 04:00:06 PM 35.3447 -85.8008 189° South 431 496 43,000  Level Atlanta Center
Tue 04:01:06 PM 35.2275 -85.8261 190° South 431 496 43,000  Level Atlanta Center
Tue 04:02:06 PM 35.1083 -85.8492 189° South 431 496 43,000  Level Atlanta Center
Tue 04:03:06 PM 34.9911 -85.8744 190° South 431 496 43,000  Level Atlanta Center
Tue 04:04:06 PM 34.8844 -85.8922 188° South 426 490 43,000  Level Atlanta Center
Tue 04:05:06 PM 34.7672 -85.9150 189° South 426 490 43,000  Level Atlanta Center
Tue 04:06:06 PM 34.6481 -85.9325 187° South 432 497 43,000 -200 Level Atlanta Center
Tue 04:07:06 PM 34.5267 -85.9475 186° South 432 497 42,600 -650 Descending Atlanta Center
Tue 04:08:06 PM 34.4011 -85.9597 185° South 445 512 41,700 -950 Descending Atlanta Center
Tue 04:09:06 PM 34.2781 -85.9669 183° South 450 518 40,700 -1,050 Descending Atlanta Center
Tue 04:10:06 PM 34.1381 -85.9739 182° South 456 525 39,600 -1,250 Descending Atlanta Center
Tue 04:11:06 PM 34.0169 -85.9836 184° South 456 525 38,200 -1,600 Descending Atlanta Center
Tue 04:12:06 PM 33.8978 -85.9933 184° South 444 511 36,400 -1,900 Descending Atlanta Center
Tue 04:13:06 PM 33.7806 -86.0133 188° South 438 504 34,400 -2,100 Descending Atlanta Center
Tue 04:14:06 PM 33.6611 -86.0453 193° South 438 504 32,200 -2,350 Descending Atlanta Center
Tue 04:15:06 PM 33.5583 -86.0731 193° South 438 504 29,700 -2,800 Descending Atlanta Center
Tue 04:16:06 PM 33.4389 -86.1050 193° South 438 504 26,600 -2,300 Descending Atlanta Center
Tue 04:17:06 PM 33.3150 -86.1369 192° South 438 504 25,100 -1,150 Descending Atlanta Center
Tue 04:18:06 PM 33.1936 -86.1686 192° South 438 504 24,300 -600 Descending Atlanta Center
Tue 04:19:06 PM 33.0678 -86.2003 192° South 452 520 23,900 -1,750 Descending Atlanta Center
Tue 04:20:06 PM 32.9503 -86.2319 193° South 446 513 20,800 -3,300 Descending Atlanta Center
Tue 04:21:06 PM 32.8369 -86.2589 191° South 433 498 17,300 -4,000 Descending Atlanta Center
Tue 04:22:06 PM 32.7344 -86.2858 192° South 410 472 12,800 -4,100 Descending Atlanta Center
Tue 04:23:06 PM 32.6342 -86.2858 180° South 381 438 9,100 -3,100 Descending Atlanta Center
Tue 04:24:06 PM 32.5486 -86.2836 179° South 345 397 6,600 -1,500 Descending Atlanta Center
Tue 04:25:18 PM 32.4797 -86.2769 175° South 297 342 5,800 -682 Descending Atlanta Center
Tue 04:26:18 PM 32.4178 -86.2436 156° South 226 260 5,100 -600 Descending Atlanta Center
Tue 04:27:18 PM 32.3700 -86.2250 162° South 202 232 4,600 -650 Descending Atlanta Center
Tue 04:28:18 PM 32.3203 -86.2092 165° South 191 220 3,800 -1,050 Descending Atlanta Center
Tue 04:29:18 PM 32.2883 -86.2500 227° Southwest 162 186 2,500 -1,300 Descending Atlanta Center
Tue 04:31:00 PM 32.3000 -86.3833 278° West  Level FlightAware Approximate
Tue 04:38:00 PM 32.3006 -86.3940 278° West  Level Estimated
Tue 04:39:00 PM 32.3006 -86.3940 278° West  Level Estimated

Login

Don't have an account? Register now (free) for customized features, flight alerts, and more!